Time;durP1;ratioP1;P1;durP2;ratioP2;P2;SDS_P1;SDS_P2;PMS_P1;PMS_P2;Temp;Humidity;BMP_temperature;BMP_pressure;BME280_temperature;BME280_humidity;BME280_pressure;Samples;Min_cycle;Max_cycle;Signal;HPM_P1;HPM_P2
2021/01/19 00:11:56;;;;;;;206.30;63.23;;;;;;;-14.79;92.77;100556.51;10711881;81;21083;-78
2021/01/19 00:27:01;;;;;;;185.25;55.08;;;;;;;-14.71;94.00;100544.06;10650399;81;20995;-78
2021/01/19 00:42:06;;;;;;;169.30;51.53;;;;;;;-14.46;94.79;100522.66;10641724;83;21141;-78
2021/01/19 00:57:11;;;;;;;126.05;45.80;;;;;;;-14.25;96.40;100519.66;10519083;83;21080;-79
2021/01/19 01:12:15;;;;;;;157.55;47.08;;;;;;;-14.19;98.47;100501.67;10386094;84;21181;-80
2021/01/19 01:27:19;;;;;;;131.95;40.15;;;;;;;-14.13;100.00;100490.40;10387260;84;21134;-79
2021/01/19 01:42:25;;;;;;;129.20;41.28;;;;;;;-14.11;100.00;100480.78;10384381;84;21410;-79
2021/01/19 01:57:30;;;;;;;100.05;30.55;;;;;;;-14.32;100.00;100462.38;10386591;84;21129;-78
2021/01/19 02:12:45;;;;;;;207.22;66.57;;;;;;;-13.98;100.00;100436.42;10387364;85;21133;-78
2021/01/19 02:28:12;;;;;;;122.33;39.00;;;;;;;-13.44;100.00;100413.16;10386601;84;21035;-78
2021/01/19 02:43:23;;;;;;;83.37;28.60;;;;;;;-13.12;100.00;100415.59;10379309;84;21085;-78
2021/01/19 02:58:59;;;;;;;89.87;30.10;;;;;;;-12.66;100.00;100402.56;10417885;84;21221;-79
2021/01/19 03:14:04;;;;;;;247.12;76.80;;;;;;;-12.40;100.00;100403.62;10178181;86;21040;-78
2021/01/19 03:29:08;;;;;;;118.20;39.38;;;;;;;-12.22;100.00;100391.53;10183301;84;21093;-79
2021/01/19 03:44:13;;;;;;;155.65;45.65;;;;;;;-11.95;100.00;100377.78;10420142;84;21031;-79
2021/01/19 03:59:18;;;;;;;223.47;63.52;;;;;;;-11.76;100.00;100352.09;10635878;81;21068;-78
2021/01/19 04:14:22;;;;;;;159.48;51.92;;;;;;;-11.48;100.00;100341.67;10765230;81;21032;-78
2021/01/19 04:29:27;;;;;;;169.43;49.98;;;;;;;-11.20;100.00;100327.80;10765717;81;21072;-78
2021/01/19 04:44:32;;;;;;;194.50;57.80;;;;;;;-10.94;100.00;100318.97;10765224;81;21016;-79
2021/01/19 04:59:39;;;;;;;162.45;52.43;;;;;;;-10.75;100.00;100313.46;10820406;81;21079;-80
2021/01/19 05:14:44;;;;;;;142.35;44.73;;;;;;;-10.64;100.00;100307.11;10864128;81;21048;-79
2021/01/19 05:29:51;;;;;;;151.30;47.03;;;;;;;-10.34;100.00;100315.50;10862791;81;21515;-79
2021/01/19 05:44:55;;;;;;;356.95;110.90;;;;;;;-10.16;100.00;100290.92;10808868;82;21056;-80
2021/01/19 06:00:01;;;;;;;431.70;149.10;;;;;;;-10.00;100.00;100245.62;10325249;84;21044;-79
2021/01/19 06:15:09;;;;;;;180.63;62.48;;;;;;;-9.96;100.00;100257.44;10677736;82;21065;-79
2021/01/19 06:30:16;;;;;;;173.68;58.75;;;;;;;-9.86;100.00;100229.03;10763000;81;21045;-79
2021/01/19 06:45:22;;;;;;;166.10;55.75;;;;;;;-9.76;100.00;100228.58;10732670;81;21024;-79
2021/01/19 07:00:29;;;;;;;165.28;56.50;;;;;;;-9.68;100.00;100241.23;10730673;82;21194;-83
2021/01/19 07:16:05;;;;;;;232.15;73.67;;;;;;;-9.59;100.00;100256.42;10707509;83;21606;-82
2021/01/19 07:31:13;;;;;;;198.57;62.70;;;;;;;-9.29;100.00;100264.69;10676536;83;21397;-81
2021/01/19 07:46:23;;;;;;;190.85;71.28;;;;;;;-9.14;100.00;100242.14;10705677;82;21060;-80
2021/01/19 08:01:29;;;;;;;235.17;77.20;;;;;;;-9.05;100.00;100210.30;10601208;82;21129;-81
2021/01/19 08:16:38;;;;;;;202.25;70.12;;;;;;;-8.89;100.00;100215.64;10504375;83;21039;-81
2021/01/19 08:31:43;;;;;;;216.73;69.53;;;;;;;-8.77;100.00;100212.14;10487022;83;21009;-81
2021/01/19 08:46:49;;;;;;;303.77;101.70;;;;;;;-8.60;100.00;100225.12;10452886;83;21211;-81
2021/01/19 09:01:56;;;;;;;181.90;66.17;;;;;;;-8.56;100.00;100236.52;10570780;83;21568;-81
2021/01/19 09:17:01;;;;;;;194.15;67.75;;;;;;;-8.41;100.00;100220.64;10717775;82;21439;-81
2021/01/19 09:32:06;;;;;;;305.25;97.90;;;;;;;-8.06;100.00;100203.67;10687595;82;21450;-83
2021/01/19 09:47:13;;;;;;;242.57;77.82;;;;;;;-7.89;100.00;100198.36;10659496;83;21206;-81
2021/01/19 10:02:28;;;;;;;363.12;120.85;;;;;;;-7.78;100.00;100165.09;10705747;83;21048;-81
2021/01/19 10:17:33;;;;;;;273.43;95.47;;;;;;;-7.60;100.00;100128.31;10737822;81;21171;-79
2021/01/19 10:32:48;;;;;;;245.65;82.65;;;;;;;-7.46;100.00;100117.88;10738916;81;21115;-83
2021/01/19 10:47:55;;;;;;;244.97;85.55;;;;;;;-7.39;100.00;100119.89;10729167;83;21655;-83
2021/01/19 11:03:01;;;;;;;311.12;97.72;;;;;;;-7.37;100.00;100114.34;10709169;82;21586;-88
2021/01/19 11:18:05;;;;;;;328.15;102.00;;;;;;;-6.98;100.00;100091.56;10719793;83;21123;-82
2021/01/19 11:33:11;;;;;;;435.13;128.23;;;;;;;-6.97;100.00;100065.61;10677544;83;21108;-79
2021/01/19 11:48:15;;;;;;;556.55;205.15;;;;;;;-6.88;100.00;100066.70;10651855;83;21182;-79
2021/01/19 12:03:19;;;;;;;260.17;80.03;;;;;;;-6.68;100.00;100043.33;10692646;83;21060;-81
2021/01/19 12:18:23;;;;;;;;;;;;;;;-6.67;100.00;100002.91;10739581;82;21025;-80
2021/01/19 12:33:28;;;;;;;298.35;98.92;;;;;;;-6.30;100.00;99984.21;10739488;83;20592;-84
2021/01/19 12:48:33;;;;;;;402.57;149.80;;;;;;;-6.23;100.00;99957.67;10751230;81;21059;-82
2021/01/19 13:03:39;;;;;;;266.33;91.30;;;;;;;-6.21;100.00;99926.53;10731312;81;21068;-81
2021/01/19 13:18:44;;;;;;;466.00;168.93;;;;;;;-6.27;100.00;99922.88;10745281;81;21061;-79
2021/01/19 13:33:48;;;;;;;317.20;110.20;;;;;;;-6.20;100.00;99912.06;10750864;81;21453;-79
2021/01/19 13:48:54;;;;;;;320.40;102.23;;;;;;;-6.26;100.00;99902.00;10734743;82;21567;-81
2021/01/19 14:03:59;;;;;;;284.73;102.85;;;;;;;-6.29;100.00;99883.77;10760686;82;21581;-79
2021/01/19 14:19:03;;;;;;;256.77;81.30;;;;;;;-6.23;100.00;99882.34;10726891;83;21552;-79
2021/01/19 14:34:08;;;;;;;304.60;95.97;;;;;;;-6.16;100.00;99877.05;10731507;83;21119;-82
2021/01/19 14:49:14;;;;;;;309.52;110.48;;;;;;;-6.16;100.00;99878.33;10749498;81;21596;-79
2021/01/19 15:04:18;;;;;;;262.20;86.15;;;;;;;-6.14;100.00;99879.14;10712223;81;21012;-78
2021/01/19 15:19:26;;;;;;;223.85;73.42;;;;;;;-6.21;100.00;99869.53;10708628;83;21032;-79
2021/01/19 15:34:31;;;;;;;410.27;125.87;;;;;;;-6.19;100.00;99838.39;10748642;81;21107;-79
2021/01/19 15:49:35;;;;;;;338.33;113.13;;;;;;;-6.14;100.00;99834.00;10748836;83;21489;-78
2021/01/19 16:04:40;;;;;;;304.53;104.33;;;;;;;-6.06;100.00;99817.20;10686296;82;21202;-79
2021/01/19 16:19:48;;;;;;;213.15;76.53;;;;;;;-6.12;100.00;99776.48;10748802;81;21495;-88
2021/01/19 16:34:53;;;;;;;254.20;92.05;;;;;;;-5.93;100.00;99777.63;10734743;81;21052;-88
2021/01/19 16:49:57;;;;;;;263.50;88.40;;;;;;;-5.82;100.00;99801.59;10719925;81;21083;-90
2021/01/19 17:05:02;;;;;;;328.63;107.47;;;;;;;-5.80;100.00;99774.28;10750207;82;21035;-89
2021/01/19 17:20:09;;;;;;;418.10;138.70;;;;;;;-5.81;100.00;99767.95;10751929;81;21040;-90
2021/01/19 17:35:15;;;;;;;448.75;145.95;;;;;;;-5.71;100.00;99751.47;10805626;81;21505;-85
2021/01/19 17:50:19;;;;;;;314.88;115.55;;;;;;;-5.61;100.00;99748.19;10774227;81;21036;-86
2021/01/19 18:05:24;;;;;;;679.97;281.57;;;;;;;-5.57;100.00;99742.95;10722535;82;21089;-86
2021/01/19 18:20:31;;;;;;;343.70;127.12;;;;;;;-5.35;100.00;99735.44;10674842;83;21109;-86
2021/01/19 18:35:36;;;;;;;341.40;120.22;;;;;;;-5.22;100.00;99734.61;10692825;83;21025;-87
2021/01/19 18:50:40;;;;;;;409.07;133.03;;;;;;;-5.18;100.00;99709.33;10687970;83;21519;-87
2021/01/19 19:05:44;;;;;;;273.87;86.60;;;;;;;-5.20;100.00;99713.67;10743882;81;21076;-86
2021/01/19 19:20:49;;;;;;;322.77;117.37;;;;;;;-5.09;100.00;99713.77;10762216;82;21143;-86
2021/01/19 19:35:54;;;;;;;331.13;114.70;;;;;;;-4.94;100.00;99696.61;10762174;83;21474;-86
2021/01/19 19:50:59;;;;;;;371.75;129.65;;;;;;;-4.96;100.00;99658.75;10749162;82;21135;-89
2021/01/19 20:06:06;;;;;;;414.33;150.53;;;;;;;-4.91;100.00;99649.62;10743992;82;21107;-88
2021/01/19 20:21:11;;;;;;;309.20;112.32;;;;;;;-4.80;100.00;99649.24;10730608;82;21076;-87
2021/01/19 20:36:20;;;;;;;275.30;101.12;;;;;;;-4.80;100.00;99638.58;10699214;83;21061;-88
2021/01/19 20:51:24;;;;;;;356.40;115.77;;;;;;;-4.70;100.00;99632.25;10728269;83;21476;-89
2021/01/19 21:06:29;;;;;;;374.53;129.97;;;;;;;-4.66;100.00;99610.38;10755110;81;21059;-88
2021/01/19 21:21:33;;;;;;;;;;;;;;;-4.47;100.00;99605.41;10735023;81;21115;-86
2021/01/19 21:36:38;;;;;;;243.10;88.97;;;;;;;-4.46;100.00;99572.08;10720794;81;20213;-85
2021/01/19 21:51:43;;;;;;;228.85;87.15;;;;;;;-4.44;100.00;99566.44;10717144;82;21033;-87
2021/01/19 22:06:47;;;;;;;234.37;86.25;;;;;;;-4.30;100.00;99558.25;10797991;81;21035;-85
2021/01/19 22:21:51;;;;;;;224.70;82.67;;;;;;;-4.14;100.00;99552.51;10822073;81;21110;-84
2021/01/19 22:36:56;;;;;;;211.90;73.90;;;;;;;-4.14;100.00;99537.99;10810643;81;21606;-85
2021/01/19 22:52:01;;;;;;;283.70;97.80;;;;;;;-4.10;100.00;99549.78;10815469;81;21165;-84
2021/01/19 23:07:06;;;;;;;231.78;78.70;;;;;;;-3.90;100.00;99531.05;10774460;81;21075;-85
2021/01/19 23:22:10;;;;;;;230.15;76.60;;;;;;;-3.65;100.00;99501.02;10715011;81;21067;-87
2021/01/19 23:37:14;;;;;;;204.15;74.72;;;;;;;-3.56;100.00;99498.89;10721025;82;21044;-87
2021/01/19 23:52:19;;;;;;;204.00;73.87;;;;;;;-3.38;100.00;99528.06;10720253;83;21460;-85
